sensor_id;sensor_type;location;lat;lon;timestamp;temperature;humidity
72786;DHT22;60902;53.876;10.674;2023-06-14T00:00:09;18.10;71.30
72786;DHT22;60902;53.876;10.674;2023-06-14T00:00:20;18.10;71.30
72786;DHT22;60902;53.876;10.674;2023-06-14T00:00:31;18.10;71.30
72786;DHT22;60902;53.876;10.674;2023-06-14T00:00:42;18.10;72.30
72786;DHT22;60902;53.876;10.674;2023-06-14T00:00:54;18.10;72.30
72786;DHT22;60902;53.876;10.674;2023-06-14T00:01:07;18.10;71.30
72786;DHT22;60902;53.876;10.674;2023-06-14T00:01:17;18.10;71.30
72786;DHT22;60902;53.876;10.674;2023-06-14T00:01:30;18.10;71.40
72786;DHT22;60902;53.876;10.674;2023-06-14T00:01:45;18.10;71.30
72786;DHT22;60902;53.876;10.674;2023-06-14T00:01:56;18.10;71.40
72786;DHT22;60902;53.876;10.674;2023-06-14T00:02:07;18.10;71.30
72786;DHT22;60902;53.876;10.674;2023-06-14T00:02:19;18.10;71.30
72786;DHT22;60902;53.876;10.674;2023-06-14T00:02:30;18.10;71.30
72786;DHT22;60902;53.876;10.674;2023-06-14T00:02:42;18.10;71.40
72786;DHT22;60902;53.876;10.674;2023-06-14T00:02:53;18.10;72.30
72786;DHT22;60902;53.876;10.674;2023-06-14T00:03:06;18.10;71.40
72786;DHT22;60902;53.876;10.674;2023-06-14T00:03:19;18.10;71.30
72786;DHT22;60902;53.876;10.674;2023-06-14T00:03:32;18.10;71.30
72786;DHT22;60902;53.876;10.674;2023-06-14T00:03:43;18.10;71.30
72786;DHT22;60902;53.876;10.674;2023-06-14T00:03:54;18.10;71.30
72786;DHT22;60902;53.876;10.674;2023-06-14T00:04:06;18.10;71.30
72786;DHT22;60902;53.876;10.674;2023-06-14T00:04:19;18.10;71.40
72786;DHT22;60902;53.876;10.674;2023-06-14T00:04:31;18.10;71.30
72786;DHT22;60902;53.876;10.674;2023-06-14T00:04:42;18.10;71.30
72786;DHT22;60902;53.876;10.674;2023-06-14T00:04:53;18.10;71.30
72786;DHT22;60902;53.876;10.674;2023-06-14T00:05:05;18.10;71.30
72786;DHT22;60902;53.876;10.674;2023-06-14T00:05:17;18.10;71.30
72786;DHT22;60902;53.876;10.674;2023-06-14T00:05:28;18.10;71.30
72786;DHT22;60902;53.876;10.674;2023-06-14T00:05:43;18.10;71.30
72786;DHT22;60902;53.876;10.674;2023-06-14T00:05:54;18.10;71.30
72786;DHT22;60902;53.876;10.674;2023-06-14T00:06:05;18.10;71.30
72786;DHT22;60902;53.876;10.674;2023-06-14T00:06:17;18.10;71.30
72786;DHT22;60902;53.876;10.674;2023-06-14T00:06:28;18.10;71.30
72786;DHT22;60902;53.876;10.674;2023-06-14T00:06:39;18.10;71.30
72786;DHT22;60902;53.876;10.674;2023-06-14T00:06:52;18.10;71.30
72786;DHT22;60902;53.876;10.674;2023-06-14T00:07:03;18.10;71.30
72786;DHT22;60902;53.876;10.674;2023-06-14T00:07:15;18.10;72.20
72786;DHT22;60902;53.876;10.674;2023-06-14T00:07:36;18.10;71.30
72786;DHT22;60902;53.876;10.674;2023-06-14T00:07:48;18.10;71.30
72786;DHT22;60902;53.876;10.674;2023-06-14T00:07:59;18.10;71.30
72786;DHT22;60902;53.876;10.674;2023-06-14T00:08:11;18.10;71.20
72786;DHT22;60902;53.876;10.674;2023-06-14T00:08:23;18.10;71.30
72786;DHT22;60902;53.876;10.674;2023-06-14T00:08:36;18.10;71.30
72786;DHT22;60902;53.876;10.674;2023-06-14T00:08:47;18.10;71.20
72786;DHT22;60902;53.876;10.674;2023-06-14T00:08:57;18.10;71.20
72786;DHT22;60902;53.876;10.674;2023-06-14T00:09:08;18.10;71.30
72786;DHT22;60902;53.876;10.674;2023-06-14T00:09:19;18.10;71.20
72786;DHT22;60902;53.876;10.674;2023-06-14T00:09:30;18.10;71.20
72786;DHT22;60902;53.876;10.674;2023-06-14T00:09:41;18.10;71.20
72786;DHT22;60902;53.876;10.674;2023-06-14T00:09:53;18.10;71.30
72786;DHT22;60902;53.876;10.674;2023-06-14T00:10:05;18.10;71.20
72786;DHT22;60902;53.876;10.674;2023-06-14T00:10:18;18.10;71.30
72786;DHT22;60902;53.876;10.674;2023-06-14T00:10:29;18.10;71.20
72786;DHT22;60902;53.876;10.674;2023-06-14T00:10:41;18.10;71.30
72786;DHT22;60902;53.876;10.674;2023-06-14T00:10:52;18.10;71.20
72786;DHT22;60902;53.876;10.674;2023-06-14T00:11:04;18.10;71.30
72786;DHT22;60902;53.876;10.674;2023-06-14T00:11:15;18.10;71.20
72786;DHT22;60902;53.876;10.674;2023-06-14T00:11:26;18.10;71.20
72786;DHT22;60902;53.876;10.674;2023-06-14T00:11:37;18.10;71.20
72786;DHT22;60902;53.876;10.674;2023-06-14T00:11:48;18.10;71.30
72786;DHT22;60902;53.876;10.674;2023-06-14T00:12:00;18.10;71.20
72786;DHT22;60902;53.876;10.674;2023-06-14T00:12:11;18.10;72.20
72786;DHT22;60902;53.876;10.674;2023-06-14T00:12:22;18.10;71.20
72786;DHT22;60902;53.876;10.674;2023-06-14T00:12:34;18.10;71.30
72786;DHT22;60902;53.876;10.674;2023-06-14T00:12:45;18.10;71.30
72786;DHT22;60902;53.876;10.674;2023-06-14T00:12:56;18.10;71.20
72786;DHT22;60902;53.876;10.674;2023-06-14T00:13:07;18.10;71.30
72786;DHT22;60902;53.876;10.674;2023-06-14T00:13:18;18.10;71.20
72786;DHT22;60902;53.876;10.674;2023-06-14T00:13:30;18.10;71.20
72786;DHT22;60902;53.876;10.674;2023-06-14T00:13:41;18.10;71.20
72786;DHT22;60902;53.876;10.674;2023-06-14T00:13:53;18.10;71.20
72786;DHT22;60902;53.876;10.674;2023-06-14T00:14:05;18.10;71.20
72786;DHT22;60902;53.876;10.674;2023-06-14T00:14:17;18.10;71.30
72786;DHT22;60902;53.876;10.674;2023-06-14T00:14:28;18.10;71.20
72786;DHT22;60902;53.876;10.674;2023-06-14T00:14:39;18.10;71.20
72786;DHT22;60902;53.876;10.674;2023-06-14T00:14:50;18.10;71.20
72786;DHT22;60902;53.876;10.674;2023-06-14T00:15:01;18.10;71.20
72786;DHT22;60902;53.876;10.674;2023-06-14T00:15:13;18.10;71.20
72786;DHT22;60902;53.876;10.674;2023-06-14T00:15:24;18.10;71.20
72786;DHT22;60902;53.876;10.674;2023-06-14T00:15:35;18.10;71.20
72786;DHT22;60902;53.876;10.674;2023-06-14T00:15:46;18.10;71.20
72786;DHT22;60902;53.876;10.674;2023-06-14T00:15:58;18.10;71.20
72786;DHT22;60902;53.876;10.674;2023-06-14T00:16:09;18.10;71.20
72786;DHT22;60902;53.876;10.674;2023-06-14T00:16:20;18.10;71.20
72786;DHT22;60902;53.876;10.674;2023-06-14T00:16:31;18.10;71.20
72786;DHT22;60902;53.876;10.674;2023-06-14T00:16:43;18.10;71.20
72786;DHT22;60902;53.876;10.674;2023-06-14T00:16:55;18.10;71.20
72786;DHT22;60902;53.876;10.674;2023-06-14T00:17:09;18.10;71.20
72786;DHT22;60902;53.876;10.674;2023-06-14T00:17:20;18.10;71.20
72786;DHT22;60902;53.876;10.674;2023-06-14T00:17:31;18.10;71.20
72786;DHT22;60902;53.876;10.674;2023-06-14T00:17:42;18.10;71.20
72786;DHT22;60902;53.876;10.674;2023-06-14T00:17:55;18.10;71.20
72786;DHT22;60902;53.876;10.674;2023-06-14T00:18:07;18.10;71.20
72786;DHT22;60902;53.876;10.674;2023-06-14T00:18:18;18.10;71.20
72786;DHT22;60902;53.876;10.674;2023-06-14T00:18:30;18.10;71.20
72786;DHT22;60902;53.876;10.674;2023-06-14T00:18:41;18.10;71.20
72786;DHT22;60902;53.876;10.674;2023-06-14T00:18:52;18.10;71.20
72786;DHT22;60902;53.876;10.674;2023-06-14T00:19:03;18.10;71.20
72786;DHT22;60902;53.876;10.674;2023-06-14T00:19:15;18.10;71.20
72786;DHT22;60902;53.876;10.674;2023-06-14T00:19:26;18.10;71.10
72786;DHT22;60902;53.876;10.674;2023-06-14T00:19:37;18.10;71.10
72786;DHT22;60902;53.876;10.674;2023-06-14T00:19:49;18.20;71.20
72786;DHT22;60902;53.876;10.674;2023-06-14T00:20:02;18.10;71.20
72786;DHT22;60902;53.876;10.674;2023-06-14T00:20:16;18.10;71.10
72786;DHT22;60902;53.876;10.674;2023-06-14T00:20:27;18.10;71.10
72786;DHT22;60902;53.876;10.674;2023-06-14T00:20:38;18.10;71.20
72786;DHT22;60902;53.876;10.674;2023-06-14T00:20:50;18.10;71.10
72786;DHT22;60902;53.876;10.674;2023-06-14T00:21:01;18.10;72.10
72786;DHT22;60902;53.876;10.674;2023-06-14T00:21:14;18.10;71.10
72786;DHT22;60902;53.876;10.674;2023-06-14T00:21:25;18.10;71.10
72786;DHT22;60902;53.876;10.674;2023-06-14T00:21:39;18.10;71.10
72786;DHT22;60902;53.876;10.674;2023-06-14T00:21:49;18.10;71.10
72786;DHT22;60902;53.876;10.674;2023-06-14T00:22:02;18.10;72.10
72786;DHT22;60902;53.876;10.674;2023-06-14T00:22:13;18.10;71.10
72786;DHT22;60902;53.876;10.674;2023-06-14T00:22:24;18.10;71.10
72786;DHT22;60902;53.876;10.674;2023-06-14T00:22:35;18.10;71.10
72786;DHT22;60902;53.876;10.674;2023-06-14T00:22:49;18.10;71.10
72786;DHT22;60902;53.876;10.674;2023-06-14T00:23:01;18.10;71.20
72786;DHT22;60902;53.876;10.674;2023-06-14T00:23:11;18.10;72.10
72786;DHT22;60902;53.876;10.674;2023-06-14T00:23:23;18.10;71.10
72786;DHT22;60902;53.876;10.674;2023-06-14T00:23:33;18.10;71.10
72786;DHT22;60902;53.876;10.674;2023-06-14T00:23:45;18.10;71.10
72786;DHT22;60902;53.876;10.674;2023-06-14T00:23:58;18.10;71.10
72786;DHT22;60902;53.876;10.674;2023-06-14T00:24:10;18.10;71.10
72786;DHT22;60902;53.876;10.674;2023-06-14T00:24:21;18.10;71.10
72786;DHT22;60902;53.876;10.674;2023-06-14T00:24:32;18.10;71.10
72786;DHT22;60902;53.876;10.674;2023-06-14T00:24:43;18.10;71.10
72786;DHT22;60902;53.876;10.674;2023-06-14T00:24:54;18.10;71.20
72786;DHT22;60902;53.876;10.674;2023-06-14T00:25:06;18.10;71.10
72786;DHT22;60902;53.876;10.674;2023-06-14T00:25:17;18.10;71.10
72786;DHT22;60902;53.876;10.674;2023-06-14T00:25:29;18.10;71.10
72786;DHT22;60902;53.876;10.674;2023-06-14T00:25:40;18.10;71.10
72786;DHT22;60902;53.876;10.674;2023-06-14T00:25:51;18.10;71.10
72786;DHT22;60902;53.876;10.674;2023-06-14T00:26:02;18.10;71.10
72786;DHT22;60902;53.876;10.674;2023-06-14T00:26:13;18.10;71.10
72786;DHT22;60902;53.876;10.674;2023-06-14T00:26:24;18.10;71.10
72786;DHT22;60902;53.876;10.674;2023-06-14T00:26:36;18.10;71.10
72786;DHT22;60902;53.876;10.674;2023-06-14T00:26:48;18.10;71.10
72786;DHT22;60902;53.876;10.674;2023-06-14T00:26:59;18.10;71.10
72786;DHT22;60902;53.876;10.674;2023-06-14T00:27:11;18.10;71.10
72786;DHT22;60902;53.876;10.674;2023-06-14T00:27:22;18.10;71.10
72786;DHT22;60902;53.876;10.674;2023-06-14T00:27:32;18.10;71.10
72786;DHT22;60902;53.876;10.674;2023-06-14T00:27:43;18.10;71.10
72786;DHT22;60902;53.876;10.674;2023-06-14T00:27:55;18.10;71.10
72786;DHT22;60902;53.876;10.674;2023-06-14T00:28:06;18.10;71.10
72786;DHT22;60902;53.876;10.674;2023-06-14T00:28:17;18.10;71.10
72786;DHT22;60902;53.876;10.674;2023-06-14T00:28:28;18.10;71.10
72786;DHT22;60902;53.876;10.674;2023-06-14T00:28:40;18.10;71.10
72786;DHT22;60902;53.876;10.674;2023-06-14T00:28:51;18.10;71.10
72786;DHT22;60902;53.876;10.674;2023-06-14T00:29:03;18.10;71.10
72786;DHT22;60902;53.876;10.674;2023-06-14T00:29:14;18.10;71.10
72786;DHT22;60902;53.876;10.674;2023-06-14T00:29:24;18.10;71.10
72786;DHT22;60902;53.876;10.674;2023-06-14T00:29:35;18.10;71.00
72786;DHT22;60902;53.876;10.674;2023-06-14T00:29:46;18.10;71.10
72786;DHT22;60902;53.876;10.674;2023-06-14T00:29:57;18.10;71.00
72786;DHT22;60902;53.876;10.674;2023-06-14T00:30:12;18.10;71.00
72786;DHT22;60902;53.876;10.674;2023-06-14T00:30:24;18.10;71.00
72786;DHT22;60902;53.876;10.674;2023-06-14T00:30:36;18.10;71.10
72786;DHT22;60902;53.876;10.674;2023-06-14T00:30:46;18.10;71.00
72786;DHT22;60902;53.876;10.674;2023-06-14T00:30:57;18.10;71.00
72786;DHT22;60902;53.876;10.674;2023-06-14T00:31:08;18.10;71.00
72786;DHT22;60902;53.876;10.674;2023-06-14T00:31:19;18.10;71.10
72786;DHT22;60902;53.876;10.674;2023-06-14T00:31:31;18.10;71.00
72786;DHT22;60902;53.876;10.674;2023-06-14T00:31:43;18.10;71.00
72786;DHT22;60902;53.876;10.674;2023-06-14T00:31:54;18.10;71.00
72786;DHT22;60902;53.876;10.674;2023-06-14T00:32:05;18.10;71.00
72786;DHT22;60902;53.876;10.674;2023-06-14T00:32:18;18.10;71.10
72786;DHT22;60902;53.876;10.674;2023-06-14T00:32:29;18.10;71.00
72786;DHT22;60902;53.876;10.674;2023-06-14T00:32:40;18.10;71.00
72786;DHT22;60902;53.876;10.674;2023-06-14T00:32:53;18.10;71.00
72786;DHT22;60902;53.876;10.674;2023-06-14T00:33:04;18.10;71.00
72786;DHT22;60902;53.876;10.674;2023-06-14T00:33:16;18.10;71.00
72786;DHT22;60902;53.876;10.674;2023-06-14T00:33:27;18.10;71.00
72786;DHT22;60902;53.876;10.674;2023-06-14T00:33:38;18.10;71.00
72786;DHT22;60902;53.876;10.674;2023-06-14T00:33:51;18.10;71.00
72786;DHT22;60902;53.876;10.674;2023-06-14T00:34:02;18.10;71.00
72786;DHT22;60902;53.876;10.674;2023-06-14T00:34:13;18.10;71.00
72786;DHT22;60902;53.876;10.674;2023-06-14T00:34:24;18.10;71.00
72786;DHT22;60902;53.876;10.674;2023-06-14T00:34:37;18.10;71.00
72786;DHT22;60902;53.876;10.674;2023-06-14T00:34:48;18.10;71.00
72786;DHT22;60902;53.876;10.674;2023-06-14T00:34:58;18.10;71.00
72786;DHT22;60902;53.876;10.674;2023-06-14T00:35:09;18.10;71.00
72786;DHT22;60902;53.876;10.674;2023-06-14T00:35:22;18.10;71.00
72786;DHT22;60902;53.876;10.674;2023-06-14T00:35:33;18.10;71.00
72786;DHT22;60902;53.876;10.674;2023-06-14T00:35:45;18.10;71.90
72786;DHT22;60902;53.876;10.674;2023-06-14T00:35:56;18.10;71.00
72786;DHT22;60902;53.876;10.674;2023-06-14T00:36:07;18.10;71.00
72786;DHT22;60902;53.876;10.674;2023-06-14T00:36:18;18.10;71.00
72786;DHT22;60902;53.876;10.674;2023-06-14T00:36:29;18.10;71.00
72786;DHT22;60902;53.876;10.674;2023-06-14T00:36:40;18.10;71.00
72786;DHT22;60902;53.876;10.674;2023-06-14T00:36:51;18.10;71.00
72786;DHT22;60902;53.876;10.674;2023-06-14T00:37:02;18.10;70.90
72786;DHT22;60902;53.876;10.674;2023-06-14T00:37:15;18.10;71.00
72786;DHT22;60902;53.876;10.674;2023-06-14T00:37:25;18.10;71.00
72786;DHT22;60902;53.876;10.674;2023-06-14T00:37:36;18.10;71.00
72786;DHT22;60902;53.876;10.674;2023-06-14T00:37:47;18.10;71.00
72786;DHT22;60902;53.876;10.674;2023-06-14T00:37:58;18.10;70.90
72786;DHT22;60902;53.876;10.674;2023-06-14T00:38:10;18.10;70.90
72786;DHT22;60902;53.876;10.674;2023-06-14T00:38:21;18.10;70.90
72786;DHT22;60902;53.876;10.674;2023-06-14T00:38:32;18.10;70.90
72786;DHT22;60902;53.876;10.674;2023-06-14T00:38:44;18.10;71.00
72786;DHT22;60902;53.876;10.674;2023-06-14T00:38:55;18.10;70.90
72786;DHT22;60902;53.876;10.674;2023-06-14T00:39:06;18.10;70.90
72786;DHT22;60902;53.876;10.674;2023-06-14T00:39:17;18.10;70.90
72786;DHT22;60902;53.876;10.674;2023-06-14T00:39:28;18.10;70.90
72786;DHT22;60902;53.876;10.674;2023-06-14T00:39:39;18.10;70.90
72786;DHT22;60902;53.876;10.674;2023-06-14T00:39:50;18.10;70.90
72786;DHT22;60902;53.876;10.674;2023-06-14T00:40:01;18.10;70.90
72786;DHT22;60902;53.876;10.674;2023-06-14T00:40:14;18.10;71.00
72786;DHT22;60902;53.876;10.674;2023-06-14T00:40:25;18.10;70.90
72786;DHT22;60902;53.876;10.674;2023-06-14T00:40:36;18.10;70.90
72786;DHT22;60902;53.876;10.674;2023-06-14T00:40:47;18.10;70.90
72786;DHT22;60902;53.876;10.674;2023-06-14T00:40:58;18.10;70.90
72786;DHT22;60902;53.876;10.674;2023-06-14T00:41:09;18.10;70.90
72786;DHT22;60902;53.876;10.674;2023-06-14T00:41:20;18.10;70.90
72786;DHT22;60902;53.876;10.674;2023-06-14T00:41:31;18.10;70.90
72786;DHT22;60902;53.876;10.674;2023-06-14T00:41:44;18.10;70.90
72786;DHT22;60902;53.876;10.674;2023-06-14T00:41:54;18.10;70.90
72786;DHT22;60902;53.876;10.674;2023-06-14T00:42:06;18.10;70.90
72786;DHT22;60902;53.876;10.674;2023-06-14T00:42:24;18.10;70.90
72786;DHT22;60902;53.876;10.674;2023-06-14T00:42:35;18.10;70.90
72786;DHT22;60902;53.876;10.674;2023-06-14T00:42:46;18.10;70.90
72786;DHT22;60902;53.876;10.674;2023-06-14T00:42:57;18.10;70.90
72786;DHT22;60902;53.876;10.674;2023-06-14T00:43:10;18.10;70.90
72786;DHT22;60902;53.876;10.674;2023-06-14T00:43:21;18.10;70.90
72786;DHT22;60902;53.876;10.674;2023-06-14T00:43:31;18.10;70.90
72786;DHT22;60902;53.876;10.674;2023-06-14T00:43:42;18.10;70.80
72786;DHT22;60902;53.876;10.674;2023-06-14T00:43:53;18.10;70.90
72786;DHT22;60902;53.876;10.674;2023-06-14T00:44:07;18.10;70.90
72786;DHT22;60902;53.876;10.674;2023-06-14T00:44:18;18.10;70.80
72786;DHT22;60902;53.876;10.674;2023-06-14T00:44:29;18.10;70.80
72786;DHT22;60902;53.876;10.674;2023-06-14T00:44:41;18.10;70.80
72786;DHT22;60902;53.876;10.674;2023-06-14T00:44:52;18.10;70.80
72786;DHT22;60902;53.876;10.674;2023-06-14T00:45:05;18.10;70.80
72786;DHT22;60902;53.876;10.674;2023-06-14T00:45:16;18.10;70.80
72786;DHT22;60902;53.876;10.674;2023-06-14T00:45:27;18.10;70.80
72786;DHT22;60902;53.876;10.674;2023-06-14T00:45:39;18.10;70.80
72786;DHT22;60902;53.876;10.674;2023-06-14T00:45:49;18.10;70.80
72786;DHT22;60902;53.876;10.674;2023-06-14T00:46:01;18.10;70.80
72786;DHT22;60902;53.876;10.674;2023-06-14T00:46:13;18.10;70.80
72786;DHT22;60902;53.876;10.674;2023-06-14T00:46:24;18.10;70.80
72786;DHT22;60902;53.876;10.674;2023-06-14T00:46:35;18.10;70.80
72786;DHT22;60902;53.876;10.674;2023-06-14T00:46:47;18.10;71.80
72786;DHT22;60902;53.876;10.674;2023-06-14T00:46:58;18.10;70.80
72786;DHT22;60902;53.876;10.674;2023-06-14T00:47:08;18.10;70.80
72786;DHT22;60902;53.876;10.674;2023-06-14T00:47:19;18.10;70.80
72786;DHT22;60902;53.876;10.674;2023-06-14T00:47:32;18.10;70.80
72786;DHT22;60902;53.876;10.674;2023-06-14T00:47:43;18.10;70.80
72786;DHT22;60902;53.876;10.674;2023-06-14T00:47:55;18.10;70.80
72786;DHT22;60902;53.876;10.674;2023-06-14T00:48:07;18.10;70.80
72786;DHT22;60902;53.876;10.674;2023-06-14T00:48:20;18.10;71.70
72786;DHT22;60902;53.876;10.674;2023-06-14T00:48:31;18.10;71.70
72786;DHT22;60902;53.876;10.674;2023-06-14T00:48:43;18.10;70.80
72786;DHT22;60902;53.876;10.674;2023-06-14T00:48:56;18.10;70.80
72786;DHT22;60902;53.876;10.674;2023-06-14T00:49:08;18.10;70.80
72786;DHT22;60902;53.876;10.674;2023-06-14T00:49:19;18.10;70.80
72786;DHT22;60902;53.876;10.674;2023-06-14T00:49:31;18.10;70.80
72786;DHT22;60902;53.876;10.674;2023-06-14T00:49:42;18.10;70.80
72786;DHT22;60902;53.876;10.674;2023-06-14T00:49:53;18.10;70.80
72786;DHT22;60902;53.876;10.674;2023-06-14T00:50:07;18.10;70.80
72786;DHT22;60902;53.876;10.674;2023-06-14T00:50:21;18.10;70.80
72786;DHT22;60902;53.876;10.674;2023-06-14T00:50:34;18.10;70.80
72786;DHT22;60902;53.876;10.674;2023-06-14T00:50:45;18.10;71.70
72786;DHT22;60902;53.876;10.674;2023-06-14T00:50:57;18.10;71.70
72786;DHT22;60902;53.876;10.674;2023-06-14T00:51:10;18.10;70.80
72786;DHT22;60902;53.876;10.674;2023-06-14T00:51:21;18.10;70.80
72786;DHT22;60902;53.876;10.674;2023-06-14T00:51:32;18.10;71.70
72786;DHT22;60902;53.876;10.674;2023-06-14T00:51:45;18.10;70.70
72786;DHT22;60902;53.876;10.674;2023-06-14T00:51:56;18.10;71.60
72786;DHT22;60902;53.876;10.674;2023-06-14T00:52:08;18.10;70.70
72786;DHT22;60902;53.876;10.674;2023-06-14T00:52:23;18.10;70.70
72786;DHT22;60902;53.876;10.674;2023-06-14T00:52:35;18.10;70.70
72786;DHT22;60902;53.876;10.674;2023-06-14T00:52:46;18.10;70.70
72786;DHT22;60902;53.876;10.674;2023-06-14T00:52:57;18.10;70.70
72786;DHT22;60902;53.876;10.674;2023-06-14T00:53:12;18.10;70.70
72786;DHT22;60902;53.876;10.674;2023-06-14T00:53:23;18.10;70.70
72786;DHT22;60902;53.876;10.674;2023-06-14T00:53:35;18.10;70.70
72786;DHT22;60902;53.876;10.674;2023-06-14T00:53:46;18.10;70.60
72786;DHT22;60902;53.876;10.674;2023-06-14T00:53:57;18.10;70.70
72786;DHT22;60902;53.876;10.674;2023-06-14T00:54:08;18.10;70.60
72786;DHT22;60902;53.876;10.674;2023-06-14T00:54:20;18.10;70.60
72786;DHT22;60902;53.876;10.674;2023-06-14T00:54:32;18.10;70.70
72786;DHT22;60902;53.876;10.674;2023-06-14T00:54:44;18.10;70.60
72786;DHT22;60902;53.876;10.674;2023-06-14T00:54:55;18.10;70.60
72786;DHT22;60902;53.876;10.674;2023-06-14T00:55:07;18.10;70.60
72786;DHT22;60902;53.876;10.674;2023-06-14T00:55:18;18.10;70.60
72786;DHT22;60902;53.876;10.674;2023-06-14T00:55:29;18.10;70.60
72786;DHT22;60902;53.876;10.674;2023-06-14T00:55:40;18.10;70.60
72786;DHT22;60902;53.876;10.674;2023-06-14T00:55:52;18.10;70.60
72786;DHT22;60902;53.876;10.674;2023-06-14T00:56:04;18.10;70.60
72786;DHT22;60902;53.876;10.674;2023-06-14T00:56:15;18.10;70.60
72786;DHT22;60902;53.876;10.674;2023-06-14T00:56:26;18.10;70.60
72786;DHT22;60902;53.876;10.674;2023-06-14T00:56:38;18.10;71.50
72786;DHT22;60902;53.876;10.674;2023-06-14T00:56:50;18.10;70.60
72786;DHT22;60902;53.876;10.674;2023-06-14T00:57:01;18.10;70.60
72786;DHT22;60902;53.876;10.674;2023-06-14T00:57:12;18.10;71.50
72786;DHT22;60902;53.876;10.674;2023-06-14T00:57:23;18.10;70.60
72786;DHT22;60902;53.876;10.674;2023-06-14T00:57:38;18.10;70.60
72786;DHT22;60902;53.876;10.674;2023-06-14T00:57:49;18.10;70.50
72786;DHT22;60902;53.876;10.674;2023-06-14T00:58:00;18.10;70.60
72786;DHT22;60902;53.876;10.674;2023-06-14T00:58:11;18.10;70.60
72786;DHT22;60902;53.876;10.674;2023-06-14T00:58:22;18.10;70.60
72786;DHT22;60902;53.876;10.674;2023-06-14T00:58:33;18.10;70.60
72786;DHT22;60902;53.876;10.674;2023-06-14T00:58:44;18.10;70.50
72786;DHT22;60902;53.876;10.674;2023-06-14T00:58:56;18.10;70.60
72786;DHT22;60902;53.876;10.674;2023-06-14T00:59:08;18.10;70.60
72786;DHT22;60902;53.876;10.674;2023-06-14T00:59:21;18.10;70.60
72786;DHT22;60902;53.876;10.674;2023-06-14T00:59:32;18.10;70.50
72786;DHT22;60902;53.876;10.674;2023-06-14T00:59:45;18.10;70.60
72786;DHT22;60902;53.876;10.674;2023-06-14T00:59:56;18.10;70.60
72786;DHT22;60902;53.876;10.674;2023-06-14T01:00:08;18.10;70.60
72786;DHT22;60902;53.876;10.674;2023-06-14T01:00:20;18.10;70.60
72786;DHT22;60902;53.876;10.674;2023-06-14T01:00:31;18.10;70.60
72786;DHT22;60902;53.876;10.674;2023-06-14T01:00:42;18.10;70.60
72786;DHT22;60902;53.876;10.674;2023-06-14T01:00:54;18.10;70.60
72786;DHT22;60902;53.876;10.674;2023-06-14T01:01:06;18.10;70.60
72786;DHT22;60902;53.876;10.674;2023-06-14T01:01:17;18.10;70.60
72786;DHT22;60902;53.876;10.674;2023-06-14T01:01:28;18.10;70.50
72786;DHT22;60902;53.876;10.674;2023-06-14T01:01:43;18.10;70.60
72786;DHT22;60902;53.876;10.674;2023-06-14T01:01:54;18.10;70.50
72786;DHT22;60902;53.876;10.674;2023-06-14T01:02:07;18.10;70.50
72786;DHT22;60902;53.876;10.674;2023-06-14T01:02:18;18.10;70.50
72786;DHT22;60902;53.876;10.674;2023-06-14T01:02:30;18.10;70.50
72786;DHT22;60902;53.876;10.674;2023-06-14T01:02:41;18.10;70.50
72786;DHT22;60902;53.876;10.674;2023-06-14T01:02:53;18.10;70.50
72786;DHT22;60902;53.876;10.674;2023-06-14T01:03:04;18.10;70.50
72786;DHT22;60902;53.876;10.674;2023-06-14T01:03:15;18.10;70.50
72786;DHT22;60902;53.876;10.674;2023-06-14T01:03:30;18.10;70.50
72786;DHT22;60902;53.876;10.674;2023-06-14T01:03:41;18.10;70.50
72786;DHT22;60902;53.876;10.674;2023-06-14T01:03:53;18.10;70.50
72786;DHT22;60902;53.876;10.674;2023-06-14T01:04:04;18.10;70.40
72786;DHT22;60902;53.876;10.674;2023-06-14T01:04:15;18.10;70.40
72786;DHT22;60902;53.876;10.674;2023-06-14T01:04:27;18.10;70.40
72786;DHT22;60902;53.876;10.674;2023-06-14T01:04:39;18.10;70.40
72786;DHT22;60902;53.876;10.674;2023-06-14T01:04:52;18.10;70.50
72786;DHT22;60902;53.876;10.674;2023-06-14T01:05:05;18.10;70.40
72786;DHT22;60902;53.876;10.674;2023-06-14T01:05:17;18.10;70.50
72786;DHT22;60902;53.876;10.674;2023-06-14T01:05:31;18.10;70.40
72786;DHT22;60902;53.876;10.674;2023-06-14T01:05:43;18.10;70.40
72786;DHT22;60902;53.876;10.674;2023-06-14T01:06:02;18.10;70.40
72786;DHT22;60902;53.876;10.674;2023-06-14T01:06:21;18.10;70.50
72786;DHT22;60902;53.876;10.674;2023-06-14T01:06:45;18.10;70.50
72786;DHT22;60902;53.876;10.674;2023-06-14T01:07:04;18.10;70.40
72786;DHT22;60902;53.876;10.674;2023-06-14T01:07:35;18.10;70.50
72786;DHT22;60902;53.876;10.674;2023-06-14T01:07:59;18.10;70.40
72786;DHT22;60902;53.876;10.674;2023-06-14T01:08:22;18.10;71.40
72786;DHT22;60902;53.876;10.674;2023-06-14T01:08:43;18.10;70.40
72786;DHT22;60902;53.876;10.674;2023-06-14T01:09:03;18.10;70.40
72786;DHT22;60902;53.876;10.674;2023-06-14T01:09:27;18.10;70.40
72786;DHT22;60902;53.876;10.674;2023-06-14T01:09:47;18.10;70.40
72786;DHT22;60902;53.876;10.674;2023-06-14T01:10:12;18.10;70.40
72786;DHT22;60902;53.876;10.674;2023-06-14T01:10:35;18.10;70.40
72786;DHT22;60902;53.876;10.674;2023-06-14T01:10:53;18.10;70.40
72786;DHT22;60902;53.876;10.674;2023-06-14T01:11:10;18.10;70.40
72786;DHT22;60902;53.876;10.674;2023-06-14T01:11:28;18.10;70.40
72786;DHT22;60902;53.876;10.674;2023-06-14T01:11:47;18.10;70.40
72786;DHT22;60902;53.876;10.674;2023-06-14T01:12:04;18.10;70.40
72786;DHT22;60902;53.876;10.674;2023-06-14T01:12:27;18.10;70.30
72786;DHT22;60902;53.876;10.674;2023-06-14T01:12:47;18.10;70.30
72786;DHT22;60902;53.876;10.674;2023-06-14T01:13:07;18.10;70.30
72786;DHT22;60902;53.876;10.674;2023-06-14T01:13:21;18.10;70.30
72786;DHT22;60902;53.876;10.674;2023-06-14T01:13:36;18.10;70.40
72786;DHT22;60902;53.876;10.674;2023-06-14T01:13:51;18.10;70.30
72786;DHT22;60902;53.876;10.674;2023-06-14T01:14:03;18.10;70.30
72786;DHT22;60902;53.876;10.674;2023-06-14T01:14:14;18.10;70.30
72786;DHT22;60902;53.876;10.674;2023-06-14T01:14:27;18.10;70.30
72786;DHT22;60902;53.876;10.674;2023-06-14T01:14:39;18.10;70.30
72786;DHT22;60902;53.876;10.674;2023-06-14T01:14:52;18.10;70.30
72786;DHT22;60902;53.876;10.674;2023-06-14T01:15:05;18.10;70.30
72786;DHT22;60902;53.876;10.674;2023-06-14T01:15:17;18.10;70.30
72786;DHT22;60902;53.876;10.674;2023-06-14T01:15:30;18.10;70.40
72786;DHT22;60902;53.876;10.674;2023-06-14T01:15:43;18.10;70.30
72786;DHT22;60902;53.876;10.674;2023-06-14T01:15:56;18.10;70.30